createdAt,value
2022-11-09T00:05:16.038Z,8.82
2022-11-09T00:10:47.809Z,8.82
2022-11-09T00:21:51.856Z,8.71
2022-11-09T00:27:23.440Z,8.68
2022-11-09T00:32:55.241Z,8.61
2022-11-09T00:44:00.634Z,8.47
2022-11-09T00:49:34.998Z,8.37
2022-11-09T00:55:12.628Z,8.33
2022-11-09T01:00:44.172Z,8.26
2022-11-09T01:06:16.058Z,8.25
2022-11-09T01:22:51.260Z,8.14
2022-11-09T01:28:22.971Z,8.08
2022-11-09T01:39:26.579Z,7.96
2022-11-09T01:45:05.287Z,7.90
2022-11-09T01:50:42.836Z,7.88
2022-11-09T01:56:14.624Z,7.84
2022-11-09T02:01:48.125Z,7.81
2022-11-09T02:07:19.829Z,7.74
2022-11-09T02:12:57.251Z,7.71
2022-11-09T02:18:35.348Z,7.60
2022-11-09T02:24:13.225Z,7.57
2022-11-09T02:29:50.955Z,7.50
2022-11-09T02:35:22.785Z,7.47
2022-11-09T02:40:54.563Z,7.41
2022-11-09T02:46:26.436Z,7.38
2022-11-09T02:52:04.112Z,7.32
2022-11-09T02:57:35.674Z,7.32
2022-11-09T03:03:07.442Z,7.28
2022-11-09T03:08:39.238Z,7.25
2022-11-09T03:14:11.072Z,7.19
2022-11-09T03:19:42.848Z,7.18
2022-11-09T03:25:14.617Z,7.15
2022-11-09T03:30:46.816Z,7.16
2022-11-09T03:36:18.845Z,7.18
2022-11-09T03:41:50.532Z,7.19
2022-11-09T03:47:22.618Z,7.16
2022-11-09T03:53:00.368Z,7.19
2022-11-09T03:58:38.242Z,7.18
2022-11-09T04:04:10.333Z,7.19
2022-11-09T04:09:47.894Z,7.21
2022-11-09T04:15:19.824Z,7.18
2022-11-09T04:20:51.815Z,7.21
2022-11-09T04:26:24.024Z,7.28
2022-11-09T04:31:56.063Z,7.32
2022-11-09T04:37:33.821Z,7.41
2022-11-09T04:43:05.572Z,7.47
2022-11-09T04:48:37.457Z,7.53
2022-11-09T04:54:09.263Z,7.54
2022-11-09T04:59:46.951Z,7.60
2022-11-09T05:05:24.576Z,7.60
2022-11-09T05:10:58.417Z,7.64
2022-11-09T05:16:36.363Z,7.66
2022-11-09T05:22:08.299Z,7.69
2022-11-09T05:27:40.111Z,7.73
2022-11-09T05:33:11.624Z,7.77
2022-11-09T05:38:43.416Z,7.80
2022-11-09T05:44:21.142Z,7.93
2022-11-09T05:49:59.014Z,7.94
2022-11-09T05:55:36.719Z,7.91
2022-11-09T06:01:14.116Z,7.96
2022-11-09T06:06:51.627Z,8.00
2022-11-09T06:12:23.772Z,8.00
2022-11-09T06:18:01.101Z,7.88
2022-11-09T06:23:32.842Z,7.88
2022-11-09T06:29:04.344Z,7.90
2022-11-09T06:34:36.047Z,7.90
2022-11-09T06:40:07.679Z,8.04
2022-11-09T06:45:39.513Z,8.18
2022-11-09T06:51:17.185Z,9.08
2022-11-09T06:56:48.907Z,9.70
2022-11-09T07:02:20.786Z,10.80
2022-11-09T07:07:52.662Z,11.05
2022-11-09T07:10:16.232Z,11.19
2022-11-09T07:15:53.564Z,11.22
2022-11-09T07:21:31.561Z,11.12
2022-11-09T07:27:09.086Z,11.05
2022-11-09T07:33:07.354Z,10.92
2022-11-09T07:38:12.555Z,10.88
2022-11-09T07:43:46.567Z,10.90
2022-11-09T07:49:18.334Z,10.96
2022-11-09T07:54:52.333Z,11.20
2022-11-09T08:00:23.756Z,11.33
2022-11-09T08:05:54.130Z,11.67
2022-11-09T08:11:25.570Z,11.89
2022-11-09T08:16:57.926Z,12.32
2022-11-09T08:22:29.798Z,12.50
2022-11-09T08:28:01.398Z,12.78
2022-11-09T08:33:33.239Z,12.86
2022-11-09T08:39:05.554Z,13.06
2022-11-09T08:44:37.418Z,13.22
2022-11-09T08:50:09.332Z,13.47
2022-11-09T08:55:43.792Z,13.61
2022-11-09T09:01:16.892Z,13.99
2022-11-09T09:06:45.344Z,14.16
2022-11-09T09:12:16.886Z,14.33
2022-11-09T09:17:49.360Z,14.61
2022-11-09T09:23:22.005Z,14.78
2022-11-09T09:28:53.852Z,15.10
2022-11-09T09:34:25.705Z,15.30
2022-11-09T09:39:58.038Z,15.69
2022-11-09T09:45:30.050Z,15.90
2022-11-09T09:51:02.211Z,16.27
2022-11-09T09:56:34.148Z,16.43
2022-11-09T10:02:06.492Z,16.78
2022-11-09T10:07:38.723Z,17.03
2022-11-09T10:13:10.715Z,17.65
2022-11-09T10:18:42.994Z,17.92
2022-11-09T10:24:15.152Z,18.38
2022-11-09T10:35:17.363Z,18.89
2022-11-09T10:40:49.782Z,19.06
2022-11-09T10:46:21.800Z,19.29
2022-11-09T10:51:54.124Z,19.38
2022-11-09T10:57:26.541Z,19.58
2022-11-09T11:02:58.666Z,19.69
2022-11-09T11:08:30.957Z,19.85
2022-11-09T11:14:02.913Z,19.92
2022-11-09T11:19:35.256Z,20.12
2022-11-09T11:30:37.037Z,20.31
2022-11-09T11:41:38.706Z,20.44
2022-11-09T11:47:10.614Z,20.48
2022-11-09T11:52:42.949Z,20.62
2022-11-09T11:58:15.093Z,20.69
2022-11-09T12:03:50.575Z,20.83
2022-11-09T12:09:19.636Z,20.88
2022-11-09T12:14:51.761Z,21.00
2022-11-09T12:20:23.625Z,20.97
2022-11-09T12:25:55.822Z,21.02
2022-11-09T12:31:28.410Z,20.97
2022-11-09T12:37:00.409Z,20.92
2022-11-09T12:42:32.834Z,20.89
2022-11-09T12:48:05.151Z,20.85
2022-11-09T12:53:37.484Z,20.75
2022-11-09T12:59:09.598Z,20.48
2022-11-09T13:04:41.460Z,20.28
2022-11-09T13:10:13.550Z,20.06
2022-11-09T13:15:45.220Z,20.00
2022-11-09T13:21:17.400Z,19.93
2022-11-09T13:26:49.718Z,19.90
2022-11-09T13:32:21.923Z,19.82
2022-11-09T13:37:53.626Z,19.75
2022-11-09T13:43:25.764Z,19.69
2022-11-09T13:48:57.893Z,19.66
2022-11-09T13:54:29.756Z,19.64
2022-11-09T14:00:01.752Z,19.59
2022-11-09T14:05:33.615Z,19.58
2022-11-09T14:11:05.737Z,19.54
2022-11-09T14:16:37.713Z,19.47
2022-11-09T14:22:09.972Z,19.41
2022-11-09T14:27:41.889Z,19.30
2022-11-09T14:33:13.859Z,19.24
2022-11-09T14:38:46.014Z,19.14
2022-11-09T14:44:18.321Z,19.10
2022-11-09T14:49:51.091Z,18.95
2022-11-09T14:55:23.473Z,18.90
2022-11-09T15:00:55.744Z,18.74
2022-11-09T15:06:27.600Z,18.61
2022-11-09T15:11:59.406Z,18.51
2022-11-09T15:17:31.405Z,18.28
2022-11-09T15:23:03.415Z,18.17
2022-11-09T15:28:35.402Z,18.00
2022-11-09T15:34:07.208Z,17.90
2022-11-09T15:39:38.736Z,17.69
2022-11-09T15:45:10.892Z,17.61
2022-11-09T15:50:42.909Z,17.42
2022-11-09T15:56:15.256Z,17.30
2022-11-09T16:01:47.094Z,17.14
2022-11-09T16:07:19.227Z,17.02
2022-11-09T16:12:51.444Z,16.88
2022-11-09T16:18:26.107Z,16.78
2022-11-09T16:23:58.661Z,16.58
2022-11-09T16:40:27.851Z,16.23
2022-11-09T16:46:00.037Z,16.17
2022-11-09T16:51:32.241Z,16.16
2022-11-09T16:57:04.407Z,16.16
2022-11-09T17:02:36.608Z,16.15
2022-11-09T17:08:08.788Z,16.15
2022-11-09T17:13:40.697Z,16.13
2022-11-09T17:19:12.774Z,16.09
2022-11-09T17:24:45.171Z,16.06
2022-11-09T17:30:18.042Z,15.93
2022-11-09T17:35:50.176Z,15.86
2022-11-09T17:41:22.214Z,15.74
2022-11-09T17:46:54.327Z,15.67
2022-11-09T17:52:26.705Z,15.53
2022-11-09T17:57:58.938Z,15.47
2022-11-09T18:03:31.338Z,15.29
2022-11-09T18:09:39.153Z,15.20
2022-11-09T18:14:35.274Z,15.03
2022-11-09T18:20:06.749Z,14.93
2022-11-09T18:25:38.732Z,14.81
2022-11-09T18:31:10.582Z,14.75
2022-11-09T18:36:42.337Z,14.67
2022-11-09T18:42:14.229Z,14.60
2022-11-09T18:47:46.385Z,14.57
2022-11-09T18:53:18.448Z,14.51
2022-11-09T18:58:50.439Z,14.43
2022-11-09T19:04:22.249Z,14.41
2022-11-09T19:09:56.675Z,14.36
2022-11-09T19:20:55.880Z,14.31
2022-11-09T19:26:28.218Z,14.23
2022-11-09T19:32:00.678Z,14.21
2022-11-09T19:37:32.931Z,14.19
2022-11-09T19:43:04.953Z,14.16
2022-11-09T19:48:36.757Z,14.13
2022-11-09T19:54:09.236Z,14.13
2022-11-09T19:59:41.349Z,14.09
2022-11-09T20:05:13.997Z,14.10
2022-11-09T20:10:45.819Z,14.08
2022-11-09T20:16:17.825Z,14.05
2022-11-09T20:21:51.352Z,14.02
2022-11-09T20:24:02.936Z,0.00
2022-11-09T20:29:34.768Z,13.98
2022-11-09T20:35:06.376Z,13.95
2022-11-09T20:40:38.534Z,13.91
2022-11-09T20:46:10.545Z,13.86
2022-11-09T20:51:42.732Z,13.84
2022-11-09T20:57:15.334Z,13.80
2022-11-09T21:02:46.815Z,13.81
2022-11-09T21:08:19.023Z,13.77
2022-11-09T21:13:50.693Z,13.77
2022-11-09T21:19:22.517Z,13.78
2022-11-09T21:24:54.212Z,13.78
2022-11-09T21:30:26.087Z,13.78
2022-11-09T21:35:58.295Z,13.80
2022-11-09T21:41:29.896Z,13.81
2022-11-09T21:47:01.954Z,13.77
2022-11-09T21:52:33.777Z,13.77
2022-11-09T21:58:05.799Z,13.78
2022-11-09T22:03:37.787Z,13.78
2022-11-09T22:09:09.285Z,13.77
2022-11-09T22:14:41.192Z,13.75
2022-11-09T22:20:12.764Z,13.74
2022-11-09T22:25:47.947Z,13.73
2022-11-09T22:31:16.507Z,13.70
2022-11-09T22:36:48.115Z,13.68
2022-11-09T22:42:20.371Z,13.61
2022-11-09T22:47:52.418Z,13.61
2022-11-09T22:53:24.366Z,13.57
2022-11-09T22:58:56.668Z,13.53
2022-11-09T23:04:28.884Z,13.51
2022-11-09T23:10:00.724Z,13.48
2022-11-09T23:15:33.400Z,13.46
2022-11-09T23:21:05.437Z,13.46
2022-11-09T23:26:37.155Z,13.41
2022-11-09T23:32:08.831Z,13.40
2022-11-09T23:37:40.521Z,13.40
2022-11-09T23:43:12.411Z,13.37
2022-11-09T23:48:44.057Z,13.40
2022-11-09T23:54:15.845Z,13.36
2022-11-09T23:59:47.548Z,13.36
